sensor_id;sensor_type;location;lat;lon;timestamp;pressure;altitude;pressure_sealevel;temperature;humidity
63819;BME280;49970;54.976;73.248;2022-11-20T00:01:24;101389.28;;;-16.53;84.04
63819;BME280;49970;54.976;73.248;2022-11-20T00:03:52;101391.75;;;-16.55;83.85
63819;BME280;49970;54.976;73.248;2022-11-20T00:06:24;101396.88;;;-16.53;84.20
63819;BME280;49970;54.976;73.248;2022-11-20T00:09:01;101388.31;;;-16.55;84.25
63819;BME280;49970;54.976;73.248;2022-11-20T00:11:28;101380.56;;;-16.59;84.47
63819;BME280;49970;54.976;73.248;2022-11-20T00:13:57;101399.25;;;-16.56;84.28
63819;BME280;49970;54.976;73.248;2022-11-20T00:16:25;101395.03;;;-16.56;84.15
63819;BME280;49970;54.976;73.248;2022-11-20T00:18:53;101397.56;;;-16.56;83.84
63819;BME280;49970;54.976;73.248;2022-11-20T00:21:22;101388.22;;;-16.57;84.14
63819;BME280;49970;54.976;73.248;2022-11-20T00:23:49;101387.38;;;-16.58;83.95
63819;BME280;49970;54.976;73.248;2022-11-20T00:26:17;101392.44;;;-16.58;83.74
63819;BME280;49970;54.976;73.248;2022-11-20T00:28:48;101388.06;;;-16.60;83.92
63819;BME280;49970;54.976;73.248;2022-11-20T00:31:15;101388.06;;;-16.60;83.67
63819;BME280;49970;54.976;73.248;2022-11-20T00:33:42;101376.53;;;-16.70;84.11
63819;BME280;49970;54.976;73.248;2022-11-20T00:36:24;101387.19;;;-16.61;83.32
63819;BME280;49970;54.976;73.248;2022-11-20T00:38:55;101381.16;;;-16.63;83.53
63819;BME280;49970;54.976;73.248;2022-11-20T00:41:23;101381.94;;;-16.64;83.30
63819;BME280;49970;54.976;73.248;2022-11-20T00:43:51;101383.47;;;-16.67;83.36
63819;BME280;49970;54.976;73.248;2022-11-20T00:46:23;101390.00;;;-16.71;83.63
63819;BME280;49970;54.976;73.248;2022-11-20T00:48:51;101386.53;;;-16.73;83.67
63819;BME280;49970;54.976;73.248;2022-11-20T00:51:27;101392.31;;;-16.75;83.74
63819;BME280;49970;54.976;73.248;2022-11-20T00:53:58;101383.50;;;-16.82;83.73
63819;BME280;49970;54.976;73.248;2022-11-20T00:56:26;101386.91;;;-16.81;83.86
63819;BME280;49970;54.976;73.248;2022-11-20T00:58:52;101379.31;;;-16.81;83.31
63819;BME280;49970;54.976;73.248;2022-11-20T01:01:25;101389.44;;;-16.81;83.19
63819;BME280;49970;54.976;73.248;2022-11-20T01:03:53;101393.03;;;-16.78;83.04
63819;BME280;49970;54.976;73.248;2022-11-20T01:06:21;101388.63;;;-16.80;83.85
63819;BME280;49970;54.976;73.248;2022-11-20T01:08:58;101393.09;;;-16.76;82.99
63819;BME280;49970;54.976;73.248;2022-11-20T01:11:27;101387.00;;;-16.80;83.54
63819;BME280;49970;54.976;73.248;2022-11-20T01:13:56;101380.28;;;-16.79;82.83
63819;BME280;49970;54.976;73.248;2022-11-20T01:16:33;101386.03;;;-16.82;82.87
63819;BME280;49970;54.976;73.248;2022-11-20T01:19:07;101383.16;;;-16.88;82.94
63819;BME280;49970;54.976;73.248;2022-11-20T01:21:36;101394.19;;;-16.88;82.37
63819;BME280;49970;54.976;73.248;2022-11-20T01:24:04;101387.88;;;-16.94;82.61
63819;BME280;49970;54.976;73.248;2022-11-20T01:26:33;101385.16;;;-16.97;82.73
63819;BME280;49970;54.976;73.248;2022-11-20T01:29:00;101386.75;;;-16.99;83.01
63819;BME280;49970;54.976;73.248;2022-11-20T01:31:29;101386.69;;;-17.01;82.55
63819;BME280;49970;54.976;73.248;2022-11-20T01:34:14;101382.13;;;-17.06;81.97
63819;BME280;49970;54.976;73.248;2022-11-20T01:36:42;101375.13;;;-17.11;82.28
63819;BME280;49970;54.976;73.248;2022-11-20T01:39:26;101387.91;;;-17.09;81.82
63819;BME280;49970;54.976;73.248;2022-11-20T01:41:55;101380.72;;;-17.16;82.54
63819;BME280;49970;54.976;73.248;2022-11-20T01:47:37;101376.97;;;-17.23;81.74
63819;BME280;49970;54.976;73.248;2022-11-20T01:50:09;101387.09;;;-17.23;82.15
63819;BME280;49970;54.976;73.248;2022-11-20T01:52:45;101384.41;;;-17.26;81.39
63819;BME280;49970;54.976;73.248;2022-11-20T01:55:17;101374.09;;;-17.29;81.07
63819;BME280;49970;54.976;73.248;2022-11-20T01:57:45;101367.91;;;-17.34;82.19
63819;BME280;49970;54.976;73.248;2022-11-20T02:00:16;101374.09;;;-17.29;82.19
63819;BME280;49970;54.976;73.248;2022-11-20T02:02:48;101372.50;;;-17.27;80.92
63819;BME280;49970;54.976;73.248;2022-11-20T02:05:27;101362.84;;;-17.34;81.64
63819;BME280;49970;54.976;73.248;2022-11-20T02:07:56;101373.03;;;-17.32;80.48
63819;BME280;49970;54.976;73.248;2022-11-20T02:10:29;101370.06;;;-17.40;80.58
63819;BME280;49970;54.976;73.248;2022-11-20T02:12:56;101377.47;;;-17.43;81.26
63819;BME280;49970;54.976;73.248;2022-11-20T02:15:41;101376.31;;;-17.48;80.92
63819;BME280;49970;54.976;73.248;2022-11-20T02:18:15;101357.81;;;-17.62;80.35
63819;BME280;49970;54.976;73.248;2022-11-20T02:20:44;101376.47;;;-17.60;79.39
63819;BME280;49970;54.976;73.248;2022-11-20T02:23:25;101361.38;;;-17.73;80.29
63819;BME280;49970;54.976;73.248;2022-11-20T02:26:04;101384.59;;;-17.66;78.91
63819;BME280;49970;54.976;73.248;2022-11-20T02:28:37;101379.25;;;-17.70;79.57
63819;BME280;49970;54.976;73.248;2022-11-20T02:31:04;101377.28;;;-17.76;79.73
63819;BME280;49970;54.976;73.248;2022-11-20T02:33:35;101390.63;;;-17.78;79.52
63819;BME280;49970;54.976;73.248;2022-11-20T02:36:14;101381.69;;;-17.87;80.05
63819;BME280;49970;54.976;73.248;2022-11-20T02:38:51;101385.41;;;-17.95;78.67
63819;BME280;49970;54.976;73.248;2022-11-20T02:41:33;101380.75;;;-18.02;79.07
63819;BME280;49970;54.976;73.248;2022-11-20T02:44:05;101387.41;;;-18.04;79.38
63819;BME280;49970;54.976;73.248;2022-11-20T02:46:32;101378.81;;;-18.06;78.01
63819;BME280;49970;54.976;73.248;2022-11-20T02:49:08;101384.75;;;-18.05;78.88
63819;BME280;49970;54.976;73.248;2022-11-20T02:51:35;101376.31;;;-18.06;79.15
63819;BME280;49970;54.976;73.248;2022-11-20T02:54:07;101380.88;;;-18.00;78.71
63819;BME280;49970;54.976;73.248;2022-11-20T02:56:43;101383.50;;;-17.99;79.33
63819;BME280;49970;54.976;73.248;2022-11-20T02:59:09;101385.69;;;-17.90;79.99
63819;BME280;49970;54.976;73.248;2022-11-20T03:01:36;101376.63;;;-17.87;79.19
63819;BME280;49970;54.976;73.248;2022-11-20T03:04:02;101383.72;;;-17.81;78.89
63819;BME280;49970;54.976;73.248;2022-11-20T03:06:29;101383.91;;;-17.78;79.98
63819;BME280;49970;54.976;73.248;2022-11-20T03:08:59;101381.09;;;-17.82;79.94
63819;BME280;49970;54.976;73.248;2022-11-20T03:11:35;101374.09;;;-17.87;78.59
63819;BME280;49970;54.976;73.248;2022-11-20T03:14:05;101382.34;;;-17.76;79.72
63819;BME280;49970;54.976;73.248;2022-11-20T03:16:31;101374.56;;;-17.79;78.83
63819;BME280;49970;54.976;73.248;2022-11-20T03:18:58;101379.34;;;-17.69;79.24
63819;BME280;49970;54.976;73.248;2022-11-20T03:21:25;101384.59;;;-17.66;79.42
63819;BME280;49970;54.976;73.248;2022-11-20T03:23:53;101364.16;;;-17.69;79.45
63819;BME280;49970;54.976;73.248;2022-11-20T03:26:24;101377.97;;;-17.64;79.59
63819;BME280;49970;54.976;73.248;2022-11-20T03:28:56;101378.94;;;-17.62;78.69
63819;BME280;49970;54.976;73.248;2022-11-20T03:31:27;101371.53;;;-17.58;79.65
63819;BME280;49970;54.976;73.248;2022-11-20T03:34:04;101377.47;;;-17.58;79.08
63819;BME280;49970;54.976;73.248;2022-11-20T03:36:40;101374.13;;;-17.57;79.06
63819;BME280;49970;54.976;73.248;2022-11-20T03:39:07;101361.41;;;-17.58;78.70
63819;BME280;49970;54.976;73.248;2022-11-20T03:41:38;101366.91;;;-17.51;78.73
63819;BME280;49970;54.976;73.248;2022-11-20T03:44:07;101368.72;;;-17.48;78.98
63819;BME280;49970;54.976;73.248;2022-11-20T03:46:42;101358.72;;;-17.47;79.19
63819;BME280;49970;54.976;73.248;2022-11-20T03:49:18;101361.59;;;-17.41;78.19
63819;BME280;49970;54.976;73.248;2022-11-20T03:51:44;101370.44;;;-17.34;79.36
63819;BME280;49970;54.976;73.248;2022-11-20T03:54:16;101375.03;;;-17.27;78.03
63819;BME280;49970;54.976;73.248;2022-11-20T03:56:42;101357.69;;;-17.21;79.28
63819;BME280;49970;54.976;73.248;2022-11-20T03:59:10;101364.81;;;-17.14;79.28
63819;BME280;49970;54.976;73.248;2022-11-20T04:01:36;101368.41;;;-17.10;78.33
63819;BME280;49970;54.976;73.248;2022-11-20T04:04:03;101357.66;;;-17.06;78.61
63819;BME280;49970;54.976;73.248;2022-11-20T04:06:37;101350.41;;;-17.00;78.83
63819;BME280;49970;54.976;73.248;2022-11-20T04:09:07;101368.91;;;-16.86;78.77
63819;BME280;49970;54.976;73.248;2022-11-20T04:11:35;101369.16;;;-16.81;78.76
63819;BME280;49970;54.976;73.248;2022-11-20T04:14:04;101366.88;;;-16.77;78.83
63819;BME280;49970;54.976;73.248;2022-11-20T04:16:34;101369.75;;;-16.71;79.08
63819;BME280;49970;54.976;73.248;2022-11-20T04:19:03;101373.41;;;-16.66;78.23
63819;BME280;49970;54.976;73.248;2022-11-20T04:21:32;101373.47;;;-16.64;79.25
63819;BME280;49970;54.976;73.248;2022-11-20T04:23:58;101365.84;;;-16.64;79.11
63819;BME280;49970;54.976;73.248;2022-11-20T04:26:29;101365.25;;;-16.60;78.50
63819;BME280;49970;54.976;73.248;2022-11-20T04:28:57;101337.72;;;-16.69;79.04
63819;BME280;49970;54.976;73.248;2022-11-20T04:31:34;101366.88;;;-16.46;78.88
63819;BME280;49970;54.976;73.248;2022-11-20T04:34:04;101359.34;;;-16.44;78.41
63819;BME280;49970;54.976;73.248;2022-11-20T04:36:32;101347.53;;;-16.44;78.15
63819;BME280;49970;54.976;73.248;2022-11-20T04:39:02;101355.81;;;-16.31;78.30
63819;BME280;49970;54.976;73.248;2022-11-20T04:41:31;101335.03;;;-16.41;78.17
63819;BME280;49970;54.976;73.248;2022-11-20T04:43:59;101345.38;;;-16.21;78.09
63819;BME280;49970;54.976;73.248;2022-11-20T04:46:44;101326.72;;;-16.22;78.05
63819;BME280;49970;54.976;73.248;2022-11-20T04:49:30;101348.06;;;-16.02;77.97
63819;BME280;49970;54.976;73.248;2022-11-20T04:52:13;101349.09;;;-15.98;78.26
63819;BME280;49970;54.976;73.248;2022-11-20T04:54:44;101345.38;;;-15.89;77.80
63819;BME280;49970;54.976;73.248;2022-11-20T04:57:12;101322.53;;;-15.89;77.60
63819;BME280;49970;54.976;73.248;2022-11-20T04:59:39;101356.72;;;-15.66;77.53
63819;BME280;49970;54.976;73.248;2022-11-20T05:02:05;101332.75;;;-15.71;77.27
63819;BME280;49970;54.976;73.248;2022-11-20T05:04:31;101362.19;;;-15.40;77.61
63819;BME280;49970;54.976;73.248;2022-11-20T05:06:57;101352.66;;;-15.28;78.13
63819;BME280;49970;54.976;73.248;2022-11-20T05:09:23;101348.97;;;-15.17;78.43
63819;BME280;49970;54.976;73.248;2022-11-20T05:11:50;101353.97;;;-15.00;77.28
63819;BME280;49970;54.976;73.248;2022-11-20T05:14:16;101360.47;;;-14.89;77.99
63819;BME280;49970;54.976;73.248;2022-11-20T05:16:42;101366.06;;;-14.78;77.40
63819;BME280;49970;54.976;73.248;2022-11-20T05:19:09;101356.34;;;-14.69;76.66
63819;BME280;49970;54.976;73.248;2022-11-20T05:21:35;101362.88;;;-14.57;77.28
63819;BME280;49970;54.976;73.248;2022-11-20T05:24:01;101349.66;;;-14.49;77.89
63819;BME280;49970;54.976;73.248;2022-11-20T05:26:27;101368.03;;;-14.36;78.07
63819;BME280;49970;54.976;73.248;2022-11-20T05:28:54;101358.03;;;-14.33;77.12
63819;BME280;49970;54.976;73.248;2022-11-20T05:31:23;101360.97;;;-14.23;76.50
63819;BME280;49970;54.976;73.248;2022-11-20T05:33:53;101353.41;;;-14.22;76.69
63819;BME280;49970;54.976;73.248;2022-11-20T05:36:20;101350.28;;;-14.16;77.64
63819;BME280;49970;54.976;73.248;2022-11-20T05:38:46;101335.06;;;-14.15;75.99
63819;BME280;49970;54.976;73.248;2022-11-20T05:41:17;101333.69;;;-14.08;75.88
63819;BME280;49970;54.976;73.248;2022-11-20T05:43:45;101334.59;;;-14.06;76.46
63819;BME280;49970;54.976;73.248;2022-11-20T05:46:20;101332.25;;;-14.01;76.30
63819;BME280;49970;54.976;73.248;2022-11-20T05:48:47;101333.28;;;-13.98;76.18
63819;BME280;49970;54.976;73.248;2022-11-20T05:51:16;101340.19;;;-13.95;76.88
63819;BME280;49970;54.976;73.248;2022-11-20T05:53:55;101327.16;;;-14.01;76.56
63819;BME280;49970;54.976;73.248;2022-11-20T05:56:22;101334.44;;;-13.91;76.67
63819;BME280;49970;54.976;73.248;2022-11-20T05:58:49;101311.84;;;-14.03;75.99
63819;BME280;49970;54.976;73.248;2022-11-20T06:01:22;101331.13;;;-13.89;76.74
63819;BME280;49970;54.976;73.248;2022-11-20T06:03:48;101321.81;;;-13.88;75.23
63819;BME280;49970;54.976;73.248;2022-11-20T06:06:25;101315.78;;;-13.90;75.55
63819;BME280;49970;54.976;73.248;2022-11-20T06:08:52;101333.13;;;-13.82;74.83
63819;BME280;49970;54.976;73.248;2022-11-20T06:11:18;101325.56;;;-13.80;75.74
63819;BME280;49970;54.976;73.248;2022-11-20T06:13:45;101322.28;;;-13.77;76.20
63819;BME280;49970;54.976;73.248;2022-11-20T06:16:15;101324.09;;;-13.75;75.37
63819;BME280;49970;54.976;73.248;2022-11-20T06:18:41;101318.31;;;-13.71;76.04
63819;BME280;49970;54.976;73.248;2022-11-20T06:21:38;101319.22;;;-13.70;76.50
63819;BME280;49970;54.976;73.248;2022-11-20T06:25:53;101321.09;;;-13.66;74.19
63819;BME280;49970;54.976;73.248;2022-11-20T06:29:24;101319.50;;;-13.63;76.01
63819;BME280;49970;54.976;73.248;2022-11-20T06:31:51;101314.50;;;-13.61;75.05
63819;BME280;49970;54.976;73.248;2022-11-20T06:34:17;101319.97;;;-13.52;74.72
63819;BME280;49970;54.976;73.248;2022-11-20T06:36:43;101310.03;;;-13.46;75.83
63819;BME280;49970;54.976;73.248;2022-11-20T06:39:09;101307.69;;;-13.41;76.56
63819;BME280;49970;54.976;73.248;2022-11-20T06:41:36;101313.22;;;-13.31;75.64
63819;BME280;49970;54.976;73.248;2022-11-20T06:44:04;101309.16;;;-13.25;75.95
63819;BME280;49970;54.976;73.248;2022-11-20T06:46:31;101308.47;;;-13.21;75.04
63819;BME280;49970;54.976;73.248;2022-11-20T06:48:57;101300.75;;;-13.24;76.43
63819;BME280;49970;54.976;73.248;2022-11-20T06:51:24;101276.72;;;-13.29;76.20
63819;BME280;49970;54.976;73.248;2022-11-20T06:53:50;101297.84;;;-13.11;75.34
63819;BME280;49970;54.976;73.248;2022-11-20T06:56:16;101291.19;;;-13.08;76.46
63819;BME280;49970;54.976;73.248;2022-11-20T06:59:05;101297.22;;;-13.06;76.14
63819;BME280;49970;54.976;73.248;2022-11-20T07:02:56;101288.00;;;-13.02;75.72
63819;BME280;49970;54.976;73.248;2022-11-20T07:06:48;101281.41;;;-12.97;76.17
63819;BME280;49970;54.976;73.248;2022-11-20T07:10:38;101275.44;;;-12.97;75.18
63819;BME280;49970;54.976;73.248;2022-11-20T07:14:29;101251.69;;;-13.17;75.13
63819;BME280;49970;54.976;73.248;2022-11-20T07:17:14;101258.09;;;-13.06;76.31
63819;BME280;49970;54.976;73.248;2022-11-20T07:19:45;101264.19;;;-13.02;75.41
63819;BME280;49970;54.976;73.248;2022-11-20T07:22:17;101248.53;;;-13.12;76.27
63819;BME280;49970;54.976;73.248;2022-11-20T07:24:43;101265.75;;;-13.06;75.22
63819;BME280;49970;54.976;73.248;2022-11-20T07:27:09;101275.94;;;-13.06;76.41
63819;BME280;49970;54.976;73.248;2022-11-20T07:29:36;101275.31;;;-13.00;76.30
63819;BME280;49970;54.976;73.248;2022-11-20T07:32:07;101241.69;;;-13.13;75.42
63819;BME280;49970;54.976;73.248;2022-11-20T07:34:43;101259.13;;;-13.01;76.19
63819;BME280;49970;54.976;73.248;2022-11-20T07:37:15;101247.38;;;-12.97;75.00
63819;BME280;49970;54.976;73.248;2022-11-20T07:39:42;101270.06;;;-12.83;76.55
63819;BME280;49970;54.976;73.248;2022-11-20T07:42:09;101261.59;;;-12.82;76.50
63819;BME280;49970;54.976;73.248;2022-11-20T07:44:46;101250.19;;;-12.91;75.81
63819;BME280;49970;54.976;73.248;2022-11-20T07:47:13;101260.47;;;-12.88;76.12
63819;BME280;49970;54.976;73.248;2022-11-20T07:49:39;101239.16;;;-12.90;76.02
63819;BME280;49970;54.976;73.248;2022-11-20T07:52:15;101247.34;;;-12.99;75.50
63819;BME280;49970;54.976;73.248;2022-11-20T07:54:41;101246.50;;;-12.98;75.81
63819;BME280;49970;54.976;73.248;2022-11-20T07:57:08;101248.13;;;-13.00;76.40
63819;BME280;49970;54.976;73.248;2022-11-20T07:59:34;101252.44;;;-12.99;75.54
63819;BME280;49970;54.976;73.248;2022-11-20T08:02:11;101216.81;;;-13.18;75.17
63819;BME280;49970;54.976;73.248;2022-11-20T08:04:48;101247.16;;;-13.03;75.29
63819;BME280;49970;54.976;73.248;2022-11-20T08:07:14;101239.34;;;-13.08;75.88
63819;BME280;49970;54.976;73.248;2022-11-20T08:09:41;101225.59;;;-13.12;75.79
63819;BME280;49970;54.976;73.248;2022-11-20T08:12:20;101230.69;;;-13.12;76.44
63819;BME280;49970;54.976;73.248;2022-11-20T08:15:15;101228.31;;;-13.07;76.83
63819;BME280;49970;54.976;73.248;2022-11-20T08:17:41;101230.06;;;-13.06;75.68
63819;BME280;49970;54.976;73.248;2022-11-20T08:20:18;101235.88;;;-13.09;76.52
63819;BME280;49970;54.976;73.248;2022-11-20T08:22:44;101232.47;;;-13.09;75.21
63819;BME280;49970;54.976;73.248;2022-11-20T08:25:21;101225.81;;;-13.06;75.69
63819;BME280;49970;54.976;73.248;2022-11-20T08:27:51;101218.13;;;-13.07;76.29
63819;BME280;49970;54.976;73.248;2022-11-20T08:30:22;101218.34;;;-13.01;76.46
63819;BME280;49970;54.976;73.248;2022-11-20T08:32:49;101219.34;;;-12.97;75.96
63819;BME280;49970;54.976;73.248;2022-11-20T08:35:24;101221.19;;;-12.93;75.48
63819;BME280;49970;54.976;73.248;2022-11-20T08:37:55;101213.38;;;-12.98;75.89
63819;BME280;49970;54.976;73.248;2022-11-20T08:40:32;101212.31;;;-13.03;76.26
63819;BME280;49970;54.976;73.248;2022-11-20T08:43:08;101214.00;;;-13.03;75.30
63819;BME280;49970;54.976;73.248;2022-11-20T08:45:35;101212.38;;;-13.01;76.63
63819;BME280;49970;54.976;73.248;2022-11-20T08:48:02;101208.78;;;-13.07;75.45
63819;BME280;49970;54.976;73.248;2022-11-20T08:50:30;101214.09;;;-13.00;75.80
63819;BME280;49970;54.976;73.248;2022-11-20T08:53:05;101217.53;;;-13.00;75.73
63819;BME280;49970;54.976;73.248;2022-11-20T08:55:31;101210.00;;;-12.97;75.93
63819;BME280;49970;54.976;73.248;2022-11-20T08:57:58;101205.88;;;-12.93;75.69
63819;BME280;49970;54.976;73.248;2022-11-20T09:00:24;101218.78;;;-12.90;76.60
63819;BME280;49970;54.976;73.248;2022-11-20T09:02:55;101197.19;;;-12.98;75.99
63819;BME280;49970;54.976;73.248;2022-11-20T09:05:21;101205.84;;;-12.95;76.26
63819;BME280;49970;54.976;73.248;2022-11-20T09:07:47;101201.53;;;-12.96;74.98
63819;BME280;49970;54.976;73.248;2022-11-20T09:10:14;101196.44;;;-12.96;75.68
63819;BME280;49970;54.976;73.248;2022-11-20T09:12:40;101202.53;;;-12.92;74.52
63819;BME280;49970;54.976;73.248;2022-11-20T09:15:07;101187.91;;;-12.96;74.34
63819;BME280;49970;54.976;73.248;2022-11-20T09:17:33;101192.31;;;-12.92;75.58
63819;BME280;49970;54.976;73.248;2022-11-20T09:19:59;101183.75;;;-12.94;74.81
63819;BME280;49970;54.976;73.248;2022-11-20T09:22:25;101187.91;;;-12.96;75.44
63819;BME280;49970;54.976;73.248;2022-11-20T09:24:52;101191.44;;;-12.93;76.10
63819;BME280;49970;54.976;73.248;2022-11-20T09:27:18;101191.41;;;-12.94;75.23
63819;BME280;49970;54.976;73.248;2022-11-20T09:29:48;101186.19;;;-12.97;76.01
63819;BME280;49970;54.976;73.248;2022-11-20T09:32:14;101186.19;;;-12.97;74.94
63819;BME280;49970;54.976;73.248;2022-11-20T09:34:40;101186.88;;;-13.01;74.52
63819;BME280;49970;54.976;73.248;2022-11-20T09:37:09;101183.75;;;-12.94;75.27
63819;BME280;49970;54.976;73.248;2022-11-20T09:39:35;101199.09;;;-12.93;75.72
63819;BME280;49970;54.976;73.248;2022-11-20T09:48:00;101182.13;;;-12.92;75.48
63819;BME280;49970;54.976;73.248;2022-11-20T09:50:50;101178.78;;;-12.91;76.60
63819;BME280;49970;54.976;73.248;2022-11-20T09:53:55;101170.84;;;-12.99;75.66
63819;BME280;49970;54.976;73.248;2022-11-20T09:56:25;101183.47;;;-13.02;75.78
63819;BME280;49970;54.976;73.248;2022-11-20T09:59:04;101177.50;;;-13.02;76.01
63819;BME280;49970;54.976;73.248;2022-11-20T10:01:42;101181.81;;;-13.00;76.58
63819;BME280;49970;54.976;73.248;2022-11-20T10:04:29;101184.47;;;-12.98;76.27
63819;BME280;49970;54.976;73.248;2022-11-20T10:07:26;101184.34;;;-13.01;77.17
63819;BME280;49970;54.976;73.248;2022-11-20T10:09:56;101174.88;;;-13.04;76.59
63819;BME280;49970;54.976;73.248;2022-11-20T10:19:01;101189.31;;;-13.05;76.37
63819;BME280;49970;54.976;73.248;2022-11-20T10:25:47;101193.50;;;-13.07;76.14
63819;BME280;49970;54.976;73.248;2022-11-20T10:33:39;101180.69;;;-13.08;75.81
63819;BME280;49970;54.976;73.248;2022-11-20T10:36:26;101167.53;;;-13.19;76.77
63819;BME280;49970;54.976;73.248;2022-11-20T10:39:00;101180.56;;;-13.11;76.65
63819;BME280;49970;54.976;73.248;2022-11-20T10:41:41;101185.78;;;-13.08;76.78
63819;BME280;49970;54.976;73.248;2022-11-20T10:44:20;101180.69;;;-13.08;76.76
63819;BME280;49970;54.976;73.248;2022-11-20T10:47:13;101187.41;;;-13.10;76.50
63819;BME280;49970;54.976;73.248;2022-11-20T10:49:41;101166.97;;;-13.12;76.32
63819;BME280;49970;54.976;73.248;2022-11-20T10:52:26;101171.47;;;-13.05;75.97
63819;BME280;49970;54.976;73.248;2022-11-20T10:58:14;101162.66;;;-13.13;75.77
63819;BME280;49970;54.976;73.248;2022-11-20T11:00:43;101163.63;;;-13.09;77.21
63819;BME280;49970;54.976;73.248;2022-11-20T11:03:29;101158.72;;;-13.05;77.06
63819;BME280;49970;54.976;73.248;2022-11-20T11:06:08;101170.59;;;-13.05;76.26
63819;BME280;49970;54.976;73.248;2022-11-20T11:08:38;101163.75;;;-13.06;75.49
63819;BME280;49970;54.976;73.248;2022-11-20T11:11:29;101160.31;;;-13.08;75.39
63819;BME280;49970;54.976;73.248;2022-11-20T11:14:10;101162.78;;;-13.10;75.80
63819;BME280;49970;54.976;73.248;2022-11-20T11:16:49;101164.50;;;-13.09;76.90
63819;BME280;49970;54.976;73.248;2022-11-20T11:19:26;101166.09;;;-13.12;75.95
63819;BME280;49970;54.976;73.248;2022-11-20T11:21:58;101167.88;;;-13.10;77.17
63819;BME280;49970;54.976;73.248;2022-11-20T11:24:26;101163.72;;;-13.08;76.19
63819;BME280;49970;54.976;73.248;2022-11-20T11:29:29;101164.47;;;-13.10;75.46
63819;BME280;49970;54.976;73.248;2022-11-20T11:32:13;101159.31;;;-13.12;76.03
63819;BME280;49970;54.976;73.248;2022-11-20T11:35:03;101154.13;;;-13.13;76.83
63819;BME280;49970;54.976;73.248;2022-11-20T11:37:35;101167.00;;;-13.10;76.45
63819;BME280;49970;54.976;73.248;2022-11-20T11:40:09;101154.94;;;-13.14;76.52
63819;BME280;49970;54.976;73.248;2022-11-20T11:42:46;101169.59;;;-13.09;76.05
63819;BME280;49970;54.976;73.248;2022-11-20T11:45:16;101164.59;;;-13.07;76.28
63819;BME280;49970;54.976;73.248;2022-11-20T11:47:48;101149.16;;;-13.10;77.02
63819;BME280;49970;54.976;73.248;2022-11-20T11:53:08;101149.28;;;-13.07;76.03
63819;BME280;49970;54.976;73.248;2022-11-20T11:58:46;101154.47;;;-13.04;77.01
63819;BME280;49970;54.976;73.248;2022-11-20T12:04:15;101151.84;;;-13.07;76.54
63819;BME280;49970;54.976;73.248;2022-11-20T12:06:58;101145.63;;;-13.14;76.84
63819;BME280;49970;54.976;73.248;2022-11-20T12:09:35;101147.25;;;-13.16;77.01
63819;BME280;49970;54.976;73.248;2022-11-20T12:12:24;101152.66;;;-13.08;77.13
63819;BME280;49970;54.976;73.248;2022-11-20T12:14:54;101158.63;;;-13.08;77.25
63819;BME280;49970;54.976;73.248;2022-11-20T12:17:21;101162.06;;;-13.06;76.39
63819;BME280;49970;54.976;73.248;2022-11-20T12:19:48;101155.28;;;-13.05;76.25
63819;BME280;49970;54.976;73.248;2022-11-20T12:22:53;101161.25;;;-13.05;76.04
63819;BME280;49970;54.976;73.248;2022-11-20T12:28:10;101150.09;;;-13.08;76.47
63819;BME280;49970;54.976;73.248;2022-11-20T12:33:46;101155.00;;;-13.13;75.93
63819;BME280;49970;54.976;73.248;2022-11-20T12:42:05;101149.00;;;-13.15;76.43
63819;BME280;49970;54.976;73.248;2022-11-20T12:53:37;101141.16;;;-13.19;76.77
63819;BME280;49970;54.976;73.248;2022-11-20T12:56:36;101138.63;;;-13.19;76.30
63819;BME280;49970;54.976;73.248;2022-11-20T13:07:44;101145.97;;;-13.28;75.98
63819;BME280;49970;54.976;73.248;2022-11-20T13:10:37;101146.75;;;-13.29;76.44
63819;BME280;49970;54.976;73.248;2022-11-20T13:16:00;101149.06;;;-13.36;76.27
63819;BME280;49970;54.976;73.248;2022-11-20T13:18:33;101153.31;;;-13.36;76.30
63819;BME280;49970;54.976;73.248;2022-11-20T13:21:13;101138.53;;;-13.45;76.03
63819;BME280;49970;54.976;73.248;2022-11-20T13:23:39;101154.16;;;-13.36;77.43
63819;BME280;49970;54.976;73.248;2022-11-20T13:26:17;101142.69;;;-13.47;77.54
63819;BME280;49970;54.976;73.248;2022-11-20T13:28:46;101142.50;;;-13.51;76.71
63819;BME280;49970;54.976;73.248;2022-11-20T13:31:43;101164.22;;;-13.39;75.84
63819;BME280;49970;54.976;73.248;2022-11-20T13:34:23;101161.50;;;-13.43;76.09
63819;BME280;49970;54.976;73.248;2022-11-20T13:36:52;101155.50;;;-13.45;77.19
63819;BME280;49970;54.976;73.248;2022-11-20T13:39:30;101151.13;;;-13.48;77.67
63819;BME280;49970;54.976;73.248;2022-11-20T13:42:03;101147.59;;;-13.51;76.67
63819;BME280;49970;54.976;73.248;2022-11-20T13:44:48;101152.81;;;-13.48;76.19
63819;BME280;49970;54.976;73.248;2022-11-20T13:47:24;101157.91;;;-13.48;77.63
63819;BME280;49970;54.976;73.248;2022-11-20T13:49:52;101153.56;;;-13.51;77.35
63819;BME280;49970;54.976;73.248;2022-11-20T13:55:12;101142.00;;;-13.64;76.70
63819;BME280;49970;54.976;73.248;2022-11-20T14:00:43;101163.22;;;-13.65;77.40
63819;BME280;49970;54.976;73.248;2022-11-20T14:03:21;101166.22;;;-13.75;77.10
63819;BME280;49970;54.976;73.248;2022-11-20T14:06:04;101168.63;;;-13.78;76.61
63819;BME280;49970;54.976;73.248;2022-11-20T14:08:36;101166.81;;;-13.81;76.92
63819;BME280;49970;54.976;73.248;2022-11-20T14:11:26;101167.63;;;-13.82;77.31
63819;BME280;49970;54.976;73.248;2022-11-20T14:14:12;101168.25;;;-13.87;76.59
63819;BME280;49970;54.976;73.248;2022-11-20T14:16:39;101166.50;;;-13.88;77.32
63819;BME280;49970;54.976;73.248;2022-11-20T14:21:52;101163.84;;;-13.91;77.32
63819;BME280;49970;54.976;73.248;2022-11-20T14:24:24;101161.34;;;-13.90;76.35